Time;durP1;ratioP1;P1;durP2;ratioP2;P2;SDS_P1;SDS_P2;PMS_P1;PMS_P2;Temp;Humidity;BMP_temperature;BMP_pressure;BME280_temperature;BME280_humidity;BME280_pressure;Samples;Min_cycle;Max_cycle;Signal;HPM_P1;HPM_P2
2022/09/15 00:00:59;;;;;;;2.67;1.90;;;21.20;63.00;;;;;;20730;6847;119148;-81
2022/09/15 00:03:25;;;;;;;2.78;2.03;;;21.10;63.60;;;;;;20527;6847;277723;-81
2022/09/15 00:05:50;;;;;;;3.50;2.30;;;21.10;63.60;;;;;;20517;6847;278297;-81
2022/09/15 00:08:17;;;;;;;2.00;1.90;;;21.30;62.70;;;;;;20694;6847;117760;-81
2022/09/15 00:10:49;;;;;;;2.20;1.87;;;21.30;62.80;;;;;;20726;6847;117590;-81
2022/09/15 00:13:15;;;;;;;2.13;1.73;;;21.00;63.20;;;;;;20718;6847;116317;-81
2022/09/15 00:15:40;;;;;;;2.03;1.87;;;20.80;63.90;;;;;;20713;6845;117480;-80
2022/09/15 00:18:07;;;;;;;3.28;2.20;;;20.50;64.80;;;;;;20695;6846;117275;-80
2022/09/15 00:20:32;;;;;;;2.60;2.20;;;20.50;64.70;;;;;;20723;6846;116482;-80
2022/09/15 00:22:59;;;;;;;4.57;2.30;;;20.40;65.10;;;;;;20515;6846;337327;-81
2022/09/15 00:25:25;;;;;;;5.13;2.40;;;20.70;64.90;;;;;;20726;6846;117324;-81
2022/09/15 00:27:50;;;;;;;4.60;2.37;;;20.80;64.60;;;;;;20727;6846;117747;-80
2022/09/15 00:30:16;;;;;;;2.40;2.20;;;20.60;64.80;;;;;;20712;6846;117178;-81
2022/09/15 00:32:42;;;;;;;2.20;2.00;;;20.40;65.60;;;;;;20726;6846;125029;-81
2022/09/15 00:35:08;;;;;;;2.93;2.37;;;20.40;65.60;;;;;;20780;6847;118057;-81
2022/09/15 00:37:33;;;;;;;2.30;2.10;;;20.30;65.70;;;;;;20738;6847;118045;-81
2022/09/15 00:40:00;;;;;;;3.43;2.40;;;20.30;66.00;;;;;;20716;6847;118247;-81
2022/09/15 00:42:26;;;;;;;2.73;2.30;;;20.20;66.10;;;;;;20727;6847;120111;-83
2022/09/15 00:44:58;;;;;;;2.30;2.10;;;20.20;66.20;;;;;;20736;6847;118085;-80
2022/09/15 00:47:29;;;;;;;5.53;2.00;;;20.20;66.40;;;;;;20710;6847;118610;-81
2022/09/15 00:49:57;;;;;;;4.27;1.80;;;20.20;66.40;;;;;;20707;6847;117452;-81
2022/09/15 00:52:33;;;;;;;3.95;2.10;;;20.10;66.20;;;;;;20449;6847;282504;-81
2022/09/15 00:55:07;;;;;;;2.40;2.03;;;20.50;64.60;;;;;;20722;6847;116852;-80
2022/09/15 00:57:41;;;;;;;2.57;2.00;;;20.50;64.60;;;;;;20684;6847;117650;-81
2022/09/15 01:00:10;;;;;;;2.00;1.90;;;20.50;64.90;;;;;;20697;6847;127249;-81
2022/09/15 01:02:36;;;;;;;3.13;2.00;;;20.30;65.10;;;;;;20723;6847;117402;-81
2022/09/15 01:05:01;;;;;;;3.57;1.90;;;20.30;65.30;;;;;;20525;6847;287871;-81
2022/09/15 01:07:33;;;;;;;2.67;2.30;;;20.50;64.20;;;;;;20504;6847;307180;-81
2022/09/15 01:09:59;;;;;;;2.33;2.10;;;20.90;62.50;;;;;;20482;6847;333131;-81
2022/09/15 01:12:24;;;;;;;1.90;1.77;;;21.20;61.20;;;;;;20497;6847;277872;-81
2022/09/15 01:14:50;;;;;;;2.50;1.87;;;21.50;60.50;;;;;;20679;6847;124243;-81
2022/09/15 01:17:33;;;;;;;2.62;2.00;;;21.30;60.90;;;;;;20481;6847;307784;-81
2022/09/15 01:20:12;;;;;;;2.00;1.80;;;21.40;60.40;;;;;;20654;6847;125407;-81
2022/09/15 01:23:07;;;;;;;2.53;1.87;;;21.10;60.70;;;;;;20499;6847;286633;-81
2022/09/15 01:25:56;;;;;;;2.40;1.90;;;21.20;60.40;;;;;;20512;6847;341903;-81
2022/09/15 01:28:45;;;;;;;1.70;1.60;;;21.50;60.00;;;;;;20729;6845;117361;-81
2022/09/15 01:31:20;;;;;;;2.92;1.80;;;21.30;60.30;;;;;;20519;6846;307363;-81
2022/09/15 01:34:00;;;;;;;2.67;1.80;;;21.20;60.70;;;;;;20695;6846;116271;-81
2022/09/15 01:36:39;;;;;;;3.57;1.77;;;21.20;60.30;;;;;;20721;6846;117455;-80
2022/09/15 01:39:07;;;;;;;1.70;1.60;;;20.90;60.90;;;;;;20440;6846;337419;-81
2022/09/15 01:41:33;;;;;;;1.77;1.60;;;21.10;60.30;;;;;;20699;6846;124655;-81
2022/09/15 01:44:05;;;;;;;1.77;1.67;;;21.00;60.50;;;;;;20683;6846;117378;-81
2022/09/15 01:46:31;;;;;;;3.13;1.97;;;20.80;61.10;;;;;;20701;6847;118572;-80
2022/09/15 01:48:56;;;;;;;2.50;1.73;;;20.60;61.60;;;;;;20706;6847;118497;-80
2022/09/15 01:51:23;;;;;;;1.92;1.70;;;20.50;62.10;;;;;;20488;6847;301184;-81
2022/09/15 01:53:50;;;;;;;1.67;1.57;;;20.80;61.80;;;;;;20709;6847;117770;-80
2022/09/15 01:56:15;;;;;;;2.90;2.10;;;20.80;61.70;;;;;;20698;6847;118043;-81
2022/09/15 01:58:41;;;;;;;1.45;1.45;;;20.70;62.00;;;;;;20731;6847;119262;-81
2022/09/15 02:01:26;;;;;;;3.13;1.70;;;20.60;62.50;;;;;;20732;6847;117247;-81
2022/09/15 02:04:05;;;;;;;2.83;1.73;;;20.40;62.70;;;;;;20499;6847;279529;-81
2022/09/15 02:06:35;;;;;;;2.00;1.90;;;20.70;61.70;;;;;;20503;6847;341395;-81
2022/09/15 02:08:57;;;;;;;1.90;1.80;;;21.10;60.60;;;;;;20493;6847;302232;-80
2022/09/15 02:11:24;;;;;;;2.70;1.80;;;21.40;59.90;;;;;;20501;6847;278326;-81
2022/09/15 02:14:19;;;;;;;1.80;1.70;;;21.60;59.30;;;;;;20709;6847;116631;-81
2022/09/15 02:16:43;;;;;;;2.40;1.80;;;21.30;59.60;;;;;;20084;6847;307375;-81
2022/09/15 02:19:15;;;;;;;1.67;1.58;;;21.40;59.40;;;;;;20721;6847;118136;-81
2022/09/15 02:21:45;;;;;;;2.03;1.80;;;21.20;59.70;;;;;;20487;6847;308115;-81
2022/09/15 02:24:10;;;;;;;2.10;1.80;;;21.20;59.70;;;;;;20474;6847;278693;-80
2022/09/15 02:26:36;;;;;;;2.87;1.95;;;21.30;59.40;;;;;;20500;6847;278614;-80
2022/09/15 02:29:03;;;;;;;2.47;1.80;;;21.50;59.20;;;;;;20723;6847;117642;-81
2022/09/15 02:31:28;;;;;;;1.80;1.70;;;21.30;59.60;;;;;;20716;6847;118576;-81
2022/09/15 02:33:55;;;;;;;4.97;1.85;;;20.90;60.30;;;;;;20722;6847;117856;-80
2022/09/15 02:36:21;;;;;;;1.60;1.50;;;20.70;61.10;;;;;;20342;6847;308430;-80
2022/09/15 02:38:46;;;;;;;1.60;1.60;;;20.80;60.60;;;;;;20738;6845;117528;-80
2022/09/15 02:41:13;;;;;;;1.50;1.30;;;20.80;60.70;;;;;;20730;6846;120497;-81
2022/09/15 02:43:44;;;;;;;1.80;1.57;;;20.60;61.20;;;;;;20731;6846;121440;-81
2022/09/15 02:46:09;;;;;;;1.70;1.60;;;20.40;61.60;;;;;;20711;6846;117865;-80
2022/09/15 02:48:35;;;;;;;2.10;1.50;;;20.30;62.00;;;;;;20736;6846;117800;-81
2022/09/15 02:51:01;;;;;;;1.97;1.50;;;20.20;62.30;;;;;;20733;6846;116712;-81
2022/09/15 02:53:26;;;;;;;1.60;1.47;;;20.00;62.50;;;;;;20736;6846;117789;-81
2022/09/15 02:55:52;;;;;;;1.73;1.62;;;20.00;62.80;;;;;;20726;6846;117821;-81
2022/09/15 02:58:17;;;;;;;3.67;1.80;;;19.90;63.00;;;;;;20708;6847;122400;-81
2022/09/15 03:00:43;;;;;;;1.60;1.50;;;19.90;63.40;;;;;;20522;6847;304359;-81
2022/09/15 03:03:09;;;;;;;2.77;1.60;;;20.20;62.90;;;;;;20726;6847;117303;-81
2022/09/15 03:05:34;;;;;;;2.00;1.80;;;20.30;62.70;;;;;;20508;6847;278714;-81
2022/09/15 03:08:01;;;;;;;3.40;1.73;;;20.50;62.00;;;;;;20496;6847;296585;-81
2022/09/15 03:10:31;;;;;;;1.63;1.53;;;21.10;60.10;;;;;;20514;6847;277274;-81
2022/09/15 03:12:55;;;;;;;1.93;1.50;;;21.10;60.10;;;;;;20509;6847;306898;-81
2022/09/15 03:15:22;;;;;;;2.83;1.67;;;21.40;58.50;;;;;;20523;6847;277764;-81
2022/09/15 03:17:49;;;;;;;2.28;1.62;;;21.50;58.10;;;;;;20513;6847;318276;-80
2022/09/15 03:20:14;;;;;;;3.40;1.43;;;21.60;58.10;;;;;;20714;6847;116470;-81
2022/09/15 03:22:40;;;;;;;2.77;1.70;;;21.30;58.50;;;;;;20444;6847;338228;-80
2022/09/15 03:25:06;;;;;;;1.50;1.40;;;21.20;58.60;;;;;;20468;6847;308222;-80
2022/09/15 03:27:31;;;;;;;3.47;1.60;;;21.40;58.20;;;;;;20724;6847;117286;-81
2022/09/15 03:29:57;;;;;;;2.25;1.40;;;21.20;58.60;;;;;;20485;6847;336862;-81
2022/09/15 03:32:22;;;;;;;1.87;1.48;;;21.20;58.60;;;;;;20508;6847;279681;-81
2022/09/15 03:34:48;;;;;;;1.62;1.48;;;21.40;58.20;;;;;;20697;6847;117777;-84
2022/09/15 03:37:14;;;;;;;1.60;1.50;;;21.20;58.60;;;;;;20722;6847;117963;-82
2022/09/15 03:39:39;;;;;;;2.23;1.50;;;20.90;59.40;;;;;;20503;6847;312479;-82
2022/09/15 03:42:05;;;;;;;1.75;1.60;;;20.90;59.20;;;;;;20483;6847;307439;-81
2022/09/15 03:44:30;;;;;;;1.63;1.53;;;21.10;58.70;;;;;;20514;6847;282071;-82
2022/09/15 03:46:57;;;;;;;1.17;1.17;;;21.30;58.80;;;;;;20702;6847;119576;-81
2022/09/15 03:49:21;;;;;;;1.77;1.17;;;21.10;58.60;;;;;;20715;6845;118172;-82
2022/09/15 03:51:47;;;;;;;1.90;1.50;;;20.80;59.30;;;;;;20715;6846;117118;-81
2022/09/15 03:54:13;;;;;;;1.50;1.40;;;20.60;60.10;;;;;;20681;6846;117474;-81
2022/09/15 03:56:38;;;;;;;1.30;1.20;;;20.40;60.70;;;;;;20708;6846;117953;-81
2022/09/15 03:59:04;;;;;;;1.70;1.30;;;20.30;61.10;;;;;;20489;6846;290742;-81
2022/09/15 04:01:29;;;;;;;2.60;1.40;;;20.50;60.60;;;;;;20706;6846;119804;-81
2022/09/15 04:03:55;;;;;;;0.80;0.80;;;20.50;60.50;;;;;;20708;6846;119396;-82
2022/09/15 04:06:21;;;;;;;1.42;1.33;;;20.50;60.20;;;;;;20447;6846;277494;-82
2022/09/15 04:08:47;;;;;;;1.73;1.30;;;20.50;60.10;;;;;;20502;6846;311576;-81
2022/09/15 04:11:13;;;;;;;1.87;1.57;;;20.80;59.60;;;;;;20713;6847;118367;-81
2022/09/15 04:13:40;;;;;;;1.60;1.17;;;20.90;59.10;;;;;;20504;6847;281013;-82
2022/09/15 04:16:05;;;;;;;1.00;1.00;;;20.80;59.00;;;;;;20694;6847;117620;-81
2022/09/15 04:18:32;;;;;;;1.23;1.03;;;20.80;59.30;;;;;;20706;6847;118412;-81
2022/09/15 04:21:00;;;;;;;1.57;1.10;;;20.50;59.80;;;;;;20715;6847;117964;-82
2022/09/15 04:23:25;;;;;;;2.30;1.30;;;20.30;60.30;;;;;;20710;6847;117633;-81
2022/09/15 04:25:54;;;;;;;1.30;1.20;;;20.10;60.70;;;;;;20719;6847;117273;-81
2022/09/15 04:28:19;;;;;;;1.07;1.07;;;20.00;61.20;;;;;;20695;6847;119794;-81
2022/09/15 04:30:46;;;;;;;1.40;1.30;;;19.90;61.50;;;;;;20719;6847;117618;-82
2022/09/15 04:33:12;;;;;;;1.70;1.30;;;19.80;61.80;;;;;;20506;6847;308624;-81
2022/09/15 04:35:38;;;;;;;1.58;1.48;;;20.10;61.60;;;;;;20509;6847;311031;-81
2022/09/15 04:38:03;;;;;;;2.00;1.17;;;20.50;60.70;;;;;;20694;6847;122438;-82
2022/09/15 04:40:28;;;;;;;2.70;1.50;;;20.50;60.60;;;;;;20515;6847;302993;-82
2022/09/15 04:42:55;;;;;;;1.47;1.00;;;20.60;60.10;;;;;;20716;6847;118189;-84
2022/09/15 04:45:21;;;;;;;1.70;1.50;;;20.50;60.30;;;;;;20514;6847;283421;-83
2022/09/15 04:47:47;;;;;;;2.03;1.43;;;20.70;60.20;;;;;;20717;6847;117363;-83
2022/09/15 04:50:12;;;;;;;1.10;1.00;;;20.60;60.70;;;;;;20706;6847;117825;-84
2022/09/15 04:52:37;;;;;;;1.20;1.20;;;20.30;61.40;;;;;;20707;6847;117410;-83
2022/09/15 04:55:03;;;;;;;2.20;1.30;;;20.10;61.20;;;;;;20493;6847;306729;-83
2022/09/15 04:57:28;;;;;;;1.50;1.33;;;20.30;60.80;;;;;;20486;6847;308741;-85
2022/09/15 04:59:54;;;;;;;2.27;1.23;;;20.60;60.00;;;;;;20716;6847;117206;-84
2022/09/15 05:02:20;;;;;;;1.48;1.20;;;20.50;60.00;;;;;;20521;6845;277265;-84
2022/09/15 05:04:50;;;;;;;2.12;1.45;;;20.80;59.30;;;;;;20532;6846;310748;-82
2022/09/15 05:07:15;;;;;;;1.33;1.30;;;20.80;59.30;;;;;;20740;6846;117470;-83
2022/09/15 05:09:40;;;;;;;1.25;1.20;;;20.70;59.60;;;;;;20732;6846;118352;-83
2022/09/15 05:12:06;;;;;;;3.03;1.53;;;20.40;60.20;;;;;;20716;6846;117263;-81
2022/09/15 05:14:31;;;;;;;2.37;1.25;;;20.20;60.80;;;;;;20741;6846;116694;-83
2022/09/15 05:16:57;;;;;;;1.80;1.12;;;20.00;62.00;;;;;;20526;6846;307608;-82
2022/09/15 05:19:23;;;;;;;1.77;1.30;;;20.20;60.90;;;;;;20519;6846;334334;-82
2022/09/15 05:21:49;;;;;;;1.43;1.27;;;20.60;60.00;;;;;;20731;6846;117677;-84
2022/09/15 05:24:16;;;;;;;1.30;1.20;;;20.60;60.00;;;;;;20515;6847;317935;-83
2022/09/15 05:26:42;;;;;;;2.17;1.30;;;20.70;59.90;;;;;;20720;6847;118042;-82
2022/09/15 05:29:07;;;;;;;2.10;1.48;;;20.60;60.70;;;;;;20527;6847;340572;-81
2022/09/15 05:31:34;;;;;;;1.70;1.40;;;20.90;59.40;;;;;;20526;6847;300457;-87
2022/09/15 05:34:04;;;;;;;2.20;1.53;;;20.90;59.40;;;;;;20501;6847;308258;-85
2022/09/15 05:36:30;;;;;;;2.47;1.30;;;21.10;58.70;;;;;;20739;6847;116452;-83
2022/09/15 05:38:55;;;;;;;1.50;1.40;;;20.90;59.00;;;;;;20520;6847;336844;-81
2022/09/15 05:41:21;;;;;;;1.40;1.30;;;20.90;59.00;;;;;;20519;6847;290819;-81
2022/09/15 05:43:47;;;;;;;2.80;1.40;;;21.10;58.70;;;;;;20518;6847;338521;-82
2022/09/15 05:46:13;;;;;;;2.33;1.37;;;21.20;58.30;;;;;;20714;6847;120248;-82
2022/09/15 05:48:38;;;;;;;1.65;1.55;;;21.00;58.70;;;;;;20745;6847;117937;-81
2022/09/15 05:51:04;;;;;;;1.27;1.25;;;20.70;59.50;;;;;;20530;6847;305068;-81
2022/09/15 05:53:30;;;;;;;1.75;1.60;;;20.80;60.00;;;;;;20520;6847;342068;-81
2022/09/15 05:56:02;;;;;;;4.95;1.70;;;21.00;60.00;;;;;;20524;6847;278339;-83
2022/09/15 05:58:27;;;;;;;1.87;1.50;;;21.10;59.80;;;;;;20705;6847;117421;-84
2022/09/15 06:00:53;;;;;;;2.73;1.70;;;20.90;60.00;;;;;;20504;6847;309689;-84
2022/09/15 06:03:18;;;;;;;2.60;1.67;;;20.90;61.10;;;;;;20709;6847;118434;-84
2022/09/15 06:05:44;;;;;;;2.87;1.80;;;20.70;61.20;;;;;;20509;6847;278421;-83
2022/09/15 06:08:09;;;;;;;6.20;2.70;;;20.70;61.90;;;;;;20679;6847;118916;-83
2022/09/15 06:10:35;;;;;;;2.40;1.90;;;20.60;62.10;;;;;;20516;6847;278308;-83
2022/09/15 06:13:01;;;;;;;1.70;1.57;;;20.60;62.70;;;;;;20722;6845;118332;-83
2022/09/15 06:15:26;;;;;;;2.63;1.80;;;20.50;62.80;;;;;;20512;6846;277374;-83
2022/09/15 06:17:52;;;;;;;4.07;1.83;;;20.50;63.30;;;;;;20518;6846;306876;-83
2022/09/15 06:20:17;;;;;;;1.87;1.50;;;20.70;63.00;;;;;;20713;6846;122725;-83
2022/09/15 06:22:43;;;;;;;2.00;1.60;;;20.60;63.00;;;;;;20727;6846;117234;-83
2022/09/15 06:25:09;;;;;;;2.67;1.87;;;20.30;63.70;;;;;;20505;6846;309017;-84
2022/09/15 06:27:35;;;;;;;3.37;1.80;;;20.30;64.00;;;;;;20724;6846;117681;-82
2022/09/15 06:30:01;;;;;;;4.47;1.77;;;20.30;64.10;;;;;;20698;6846;117542;-83
2022/09/15 06:32:26;;;;;;;1.70;1.60;;;20.10;64.60;;;;;;20657;6846;117632;-83
2022/09/15 06:34:52;;;;;;;2.43;1.50;;;19.90;65.10;;;;;;20705;6847;117266;-82
2022/09/15 06:37:17;;;;;;;2.17;1.30;;;19.70;65.60;;;;;;20722;6847;117349;-83
2022/09/15 06:39:43;;;;;;;2.15;1.60;;;19.60;66.00;;;;;;20457;6847;303926;-82
2022/09/15 06:42:09;;;;;;;1.70;1.60;;;19.90;66.10;;;;;;20485;6847;283459;-82
2022/09/15 06:44:34;;;;;;;1.70;1.60;;;20.20;64.80;;;;;;20723;6847;118060;-82
2022/09/15 06:47:00;;;;;;;1.85;1.75;;;20.30;64.60;;;;;;20517;6847;313073;-82
2022/09/15 06:49:25;;;;;;;3.90;1.58;;;20.40;64.30;;;;;;20528;6847;289371;-82
2022/09/15 06:51:51;;;;;;;2.50;1.55;;;20.60;63.60;;;;;;20520;6847;293507;-82
2022/09/15 06:54:16;;;;;;;1.40;1.30;;;20.80;62.80;;;;;;20717;6847;117226;-82
2022/09/15 06:56:42;;;;;;;1.85;1.42;;;20.70;62.90;;;;;;20521;6847;307823;-82
2022/09/15 06:59:08;;;;;;;5.90;1.83;;;20.70;62.70;;;;;;20725;6847;116337;-80
2022/09/15 07:01:33;;;;;;;2.73;1.50;;;20.60;63.00;;;;;;20716;6847;119187;-82
2022/09/15 07:03:59;;;;;;;2.00;1.62;;;20.40;63.70;;;;;;20494;6847;277850;-82
2022/09/15 07:06:28;;;;;;;2.60;1.80;;;20.50;63.80;;;;;;20506;6847;335367;-81
2022/09/15 07:08:53;;;;;;;2.03;1.80;;;20.80;63.40;;;;;;20514;6847;282365;-80
2022/09/15 07:11:19;;;;;;;1.90;1.60;;;21.10;63.00;;;;;;20535;6847;307549;-81
2022/09/15 07:13:46;;;;;;;2.12;1.35;;;21.30;62.20;;;;;;20757;6847;117143;-81
2022/09/15 07:16:12;;;;;;;2.57;1.50;;;21.10;62.20;;;;;;20711;6847;117775;-82
2022/09/15 07:18:38;;;;;;;1.80;1.57;;;20.80;63.00;;;;;;20737;6847;118296;-82
2022/09/15 07:21:07;;;;;;;2.97;1.50;;;20.40;64.30;;;;;;20728;6847;117296;-81
2022/09/15 07:23:33;;;;;;;1.80;1.30;;;20.40;64.40;;;;;;20719;6847;118289;-81
2022/09/15 07:26:01;;;;;;;2.08;1.40;;;20.20;64.70;;;;;;20704;6845;117602;-82
2022/09/15 07:28:27;;;;;;;2.47;1.80;;;20.10;65.10;;;;;;20687;6846;117665;-81
2022/09/15 07:30:55;;;;;;;2.53;1.50;;;19.90;65.60;;;;;;20699;6846;117072;-81
2022/09/15 07:33:21;;;;;;;3.57;1.40;;;19.90;65.60;;;;;;20702;6846;117049;-81
2022/09/15 07:35:46;;;;;;;1.40;1.30;;;19.90;65.80;;;;;;20722;6846;118504;-81
2022/09/15 07:38:11;;;;;;;2.42;1.70;;;19.80;66.00;;;;;;20491;6846;278572;-81
2022/09/15 07:40:38;;;;;;;2.90;2.03;;;20.10;66.10;;;;;;20711;6846;117367;-81
2022/09/15 07:43:04;;;;;;;3.20;1.40;;;20.20;65.50;;;;;;20721;6846;118146;-82
2022/09/15 07:45:30;;;;;;;2.17;1.47;;;20.00;66.00;;;;;;20716;6847;120139;-82
2022/09/15 07:47:57;;;;;;;1.53;1.43;;;20.00;65.90;;;;;;20719;6847;121342;-82
2022/09/15 07:50:22;;;;;;;2.22;1.90;;;20.00;66.50;;;;;;20361;6847;336496;-82
2022/09/15 07:52:48;;;;;;;2.33;1.73;;;20.20;66.70;;;;;;20739;6847;117177;-82
2022/09/15 07:55:14;;;;;;;3.15;1.90;;;20.30;66.20;;;;;;20540;6847;277891;-82
2022/09/15 07:57:39;;;;;;;3.77;2.20;;;20.50;66.20;;;;;;20530;6847;277760;-82
2022/09/15 08:00:05;;;;;;;2.67;1.80;;;20.90;65.20;;;;;;20503;6847;282415;-82
2022/09/15 08:02:31;;;;;;;2.43;2.17;;;21.10;64.20;;;;;;20718;6847;122313;-82
2022/09/15 08:04:56;;;;;;;2.03;1.83;;;21.00;64.30;;;;;;20511;6847;336976;-82
2022/09/15 08:07:22;;;;;;;2.80;1.90;;;21.10;64.20;;;;;;20513;6847;307347;-81
2022/09/15 08:09:47;;;;;;;2.30;1.87;;;21.30;63.70;;;;;;20728;6847;120333;-82
2022/09/15 08:12:13;;;;;;;1.50;1.40;;;21.20;63.70;;;;;;20695;6847;117439;-82
2022/09/15 08:14:39;;;;;;;1.50;1.40;;;20.90;64.50;;;;;;20730;6847;118334;-82
2022/09/15 08:17:04;;;;;;;1.57;1.47;;;20.80;65.40;;;;;;20516;6847;279100;-82
2022/09/15 08:19:30;;;;;;;1.70;1.60;;;20.90;65.40;;;;;;20515;6847;336470;-81
2022/09/15 08:21:55;;;;;;;1.50;1.40;;;21.20;64.00;;;;;;20724;6847;118456;-82
2022/09/15 08:24:22;;;;;;;2.22;1.30;;;21.20;64.00;;;;;;20711;6847;125199;-82
2022/09/15 08:26:48;;;;;;;1.57;1.20;;;21.10;64.60;;;;;;20727;6847;117157;-82
2022/09/15 08:29:14;;;;;;;4.45;2.10;;;20.90;65.10;;;;;;20514;6847;280782;-82
2022/09/15 08:31:39;;;;;;;1.33;1.27;;;21.10;64.80;;;;;;20726;6847;118977;-82
2022/09/15 08:34:05;;;;;;;1.70;1.27;;;21.10;64.60;;;;;;20494;6847;307828;-82
2022/09/15 08:36:30;;;;;;;1.35;1.20;;;21.20;64.10;;;;;;20722;6845;116812;-82
2022/09/15 08:38:56;;;;;;;1.73;1.37;;;21.30;64.10;;;;;;20514;6846;278684;-81
2022/09/15 08:41:25;;;;;;;2.17;1.23;;;21.40;63.20;;;;;;20722;6846;117589;-82
2022/09/15 08:44:31;;;;;;;1.27;1.17;;;21.20;63.80;;;;;;20714;6846;116685;-82
2022/09/15 08:47:07;;;;;;;2.07;1.60;;;21.20;63.80;;;;;;20728;6846;116700;-82
2022/09/15 08:49:42;;;;;;;2.43;1.53;;;21.00;64.60;;;;;;19891;6846;120052;-82
2022/09/15 08:52:15;;;;;;;1.87;1.37;;;21.00;65.30;;;;;;20705;6846;118324;-82
2022/09/15 08:54:40;;;;;;;1.77;1.30;;;20.90;65.80;;;;;;20688;6846;117432;-82
2022/09/15 08:57:06;;;;;;;2.37;1.20;;;21.30;66.50;;;;;;20514;6847;342305;-82
2022/09/15 08:59:32;;;;;;;2.30;1.00;;;21.30;66.50;;;;;;20706;6847;117773;-82
2022/09/15 09:02:11;;;;;;;1.20;1.10;;;21.60;65.60;;;;;;20699;6847;118769;-82
2022/09/15 09:04:57;;;;;;;1.55;1.20;;;21.80;64.50;;;;;;20261;6847;312030;-82
2022/09/15 09:07:46;;;;;;;2.23;1.17;;;21.80;64.90;;;;;;20729;6847;116764;-82
2022/09/15 09:10:24;;;;;;;1.25;1.10;;;21.90;64.70;;;;;;20500;6847;285358;-82
2022/09/15 09:12:53;;;;;;;1.77;1.02;;;22.20;63.40;;;;;;20494;6847;337311;-82
2022/09/15 09:15:22;;;;;;;1.90;1.10;;;22.50;61.90;;;;;;20727;6847;119743;-82
2022/09/15 09:18:14;;;;;;;1.23;0.80;;;22.40;62.70;;;;;;20666;6847;120655;-82
2022/09/15 09:21:03;;;;;;;2.23;1.00;;;22.40;62.70;;;;;;20503;6847;278675;-82
2022/09/15 09:23:29;;;;;;;1.52;0.90;;;22.60;61.10;;;;;;20495;6847;291657;-82
2022/09/15 09:25:54;;;;;;;1.00;0.90;;;22.90;60.00;;;;;;20700;6847;118165;-82
2022/09/15 09:28:30;;;;;;;1.60;1.10;;;22.80;60.20;;;;;;20493;6847;307825;-82
2022/09/15 09:31:06;;;;;;;2.00;1.10;;;22.90;60.80;;;;;;20512;6847;306937;-81
2022/09/15 09:33:29;;;;;;;1.37;0.80;;;23.10;60.10;;;;;;20685;6847;116170;-82
2022/09/15 09:35:53;;;;;;;3.13;0.97;;;23.00;60.00;;;;;;20711;6847;116824;-81
2022/09/15 09:38:25;;;;;;;0.70;0.67;;;22.80;60.40;;;;;;20739;6847;123055;-82
2022/09/15 09:40:51;;;;;;;1.00;0.90;;;22.50;60.50;;;;;;20530;6847;305935;-81
2022/09/15 09:43:16;;;;;;;1.05;0.95;;;22.60;60.30;;;;;;20756;6847;118212;-82
2022/09/15 09:45:44;;;;;;;2.27;0.90;;;22.70;60.60;;;;;;20738;6847;117988;-83
2022/09/15 09:48:14;;;;;;;0.90;0.90;;;22.50;60.70;;;;;;20506;6845;306954;-82
2022/09/15 09:50:42;;;;;;;1.08;1.00;;;22.60;59.70;;;;;;20503;6846;325183;-83
2022/09/15 09:53:22;;;;;;;0.97;0.90;;;23.00;59.60;;;;;;20734;6846;116520;-82
2022/09/15 09:55:48;;;;;;;1.53;0.80;;;23.00;59.90;;;;;;20726;6846;117618;-81
2022/09/15 09:58:20;;;;;;;0.90;0.80;;;22.90;60.40;;;;;;20405;6846;342043;-82
2022/09/15 10:00:45;;;;;;;0.90;0.90;;;23.10;59.50;;;;;;20500;6846;306919;-81
2022/09/15 10:03:21;;;;;;;1.03;0.93;;;23.50;58.80;;;;;;20721;6846;124019;-83
2022/09/15 10:06:03;;;;;;;2.50;0.97;;;23.50;59.00;;;;;;20727;6846;117153;-82
2022/09/15 10:08:28;;;;;;;1.13;0.90;;;23.40;59.70;;;;;;20718;6847;117475;-83
2022/09/15 10:10:54;;;;;;;4.07;1.07;;;23.30;60.20;;;;;;20726;6847;116365;-83
2022/09/15 10:13:19;;;;;;;1.20;1.12;;;23.20;60.70;;;;;;20468;6847;282434;-83
2022/09/15 10:15:45;;;;;;;1.77;1.20;;;23.50;58.60;;;;;;20470;6847;278314;-84
2022/09/15 10:18:27;;;;;;;0.83;0.83;;;23.80;57.10;;;;;;20677;6847;118187;-84
2022/09/15 10:20:53;;;;;;;0.90;0.80;;;23.80;56.60;;;;;;19704;6847;307754;-84
2022/09/15 10:23:22;;;;;;;1.10;1.10;;;23.90;55.50;;;;;;20477;6847;310634;-84
2022/09/15 10:25:47;;;;;;;1.87;1.10;;;24.00;55.20;;;;;;20484;6847;312590;-84
2022/09/15 10:28:16;;;;;;;1.00;1.00;;;24.10;54.40;;;;;;20481;6847;312365;-83
2022/09/15 10:31:15;;;;;;;1.00;1.00;;;24.10;54.20;;;;;;20714;6847;119332;-85
2022/09/15 10:33:43;;;;;;;0.90;0.90;;;23.80;54.60;;;;;;20737;6847;117630;-86
2022/09/15 10:36:22;;;;;;;1.23;1.13;;;23.30;55.40;;;;;;20729;6847;121137;-86
2022/09/15 10:38:48;;;;;;;1.30;1.17;;;22.90;56.10;;;;;;20527;6847;117463;-86
2022/09/15 10:41:17;;;;;;;1.43;0.90;;;22.60;56.80;;;;;;20690;6847;117257;-84
2022/09/15 10:44:03;;;;;;;1.20;1.20;;;22.50;57.60;;;;;;20702;6847;117518;-85
2022/09/15 10:46:32;;;;;;;1.30;1.20;;;22.40;58.30;;;;;;20509;6847;292373;-83
2022/09/15 10:49:21;;;;;;;0.97;0.97;;;22.70;58.50;;;;;;20684;6847;117593;-83
2022/09/15 10:51:52;;;;;;;1.95;1.83;;;22.90;59.40;;;;;;20493;6847;311687;-84
2022/09/15 10:54:48;;;;;;;4.60;4.30;;;23.20;59.00;;;;;;20492;6847;308379;-84
2022/09/15 10:57:35;;;;;;;3.97;3.57;;;23.60;58.70;;;;;;20498;6847;284198;-84
2022/09/15 11:00:04;;;;;;;2.05;1.85;;;24.10;56.70;;;;;;20472;6845;312330;-85
2022/09/15 11:02:39;;;;;;;1.73;1.63;;;24.30;55.40;;;;;;20454;6846;282935;-85
2022/09/15 11:05:44;;;;;;;1.53;1.20;;;24.50;54.70;;;;;;20726;6846;117747;-85
2022/09/15 11:08:30;;;;;;;3.73;1.50;;;24.20;55.60;;;;;;20711;6846;117618;-82
2022/09/15 11:11:21;;;;;;;1.93;1.30;;;23.80;55.70;;;;;;20698;6846;118369;-83
2022/09/15 11:14:05;;;;;;;1.77;1.37;;;23.50;56.00;;;;;;20713;6846;119461;-82
2022/09/15 11:16:56;;;;;;;1.70;1.60;;;23.20;56.40;;;;;;20679;6846;117028;-84
2022/09/15 11:20:02;;;;;;;1.60;1.50;;;23.10;57.00;;;;;;20492;6847;316668;-83
2022/09/15 11:22:30;;;;;;;2.43;1.80;;;23.40;58.60;;;;;;20520;6847;278171;-82
2022/09/15 11:24:56;;;;;;;2.53;1.50;;;23.90;57.20;;;;;;20718;6847;119930;-83
2022/09/15 11:27:24;;;;;;;1.80;1.70;;;23.80;57.00;;;;;;20729;6847;122014;-83
2022/09/15 11:29:59;;;;;;;2.67;1.20;;;23.20;57.70;;;;;;20732;6847;117242;-83
2022/09/15 11:32:23;;;;;;;0.90;0.90;;;23.20;57.60;;;;;;20700;6847;118272;-84
2022/09/15 11:35:29;;;;;;;1.67;0.70;;;22.80;57.50;;;;;;20722;6847;117300;-83
2022/09/15 11:37:55;;;;;;;1.90;0.40;;;22.40;57.80;;;;;;20507;6847;336317;-83
2022/09/15 11:40:20;;;;;;;0.27;0.27;;;22.40;57.30;;;;;;20695;6847;119086;-82
2022/09/15 11:42:45;;;;;;;0.87;0.40;;;22.10;57.50;;;;;;20713;6847;120886;-83
2022/09/15 11:45:14;;;;;;;1.25;0.55;;;21.70;58.30;;;;;;20496;6847;281802;-82
2022/09/15 11:47:40;;;;;;;7.83;1.20;;;21.50;59.30;;;;;;20513;6847;307558;-81
2022/09/15 11:50:28;;;;;;;6.82;1.00;;;21.60;59.80;;;;;;20485;6847;335005;-81
2022/09/15 11:53:08;;;;;;;0.97;0.60;;;21.50;60.30;;;;;;20713;6847;117320;-82
2022/09/15 11:55:34;;;;;;;3.23;0.50;;;20.50;61.30;;;;;;20148;6847;120421;-83
2022/09/15 11:58:15;;;;;;;1.13;0.30;;;20.50;61.30;;;;;;20481;6847;308144;-84
2022/09/15 12:00:43;;;;;;;1.07;0.30;;;20.30;61.60;;;;;;20722;6847;121214;-83
2022/09/15 12:03:18;;;;;;;1.63;0.40;;;20.30;61.60;;;;;;20699;6847;121693;-83
2022/09/15 12:05:45;;;;;;;4.50;0.50;;;19.70;63.10;;;;;;20720;6847;117170;-83
2022/09/15 12:08:14;;;;;;;0.93;0.60;;;19.60;62.80;;;;;;20458;6847;308865;-83
2022/09/15 12:10:40;;;;;;;0.30;0.30;;;20.00;62.60;;;;;;20123;6845;291555;-84
2022/09/15 12:13:06;;;;;;;0.50;0.30;;;20.10;62.70;;;;;;20729;6846;118486;-83
2022/09/15 12:15:31;;;;;;;0.40;0.30;;;19.90;62.60;;;;;;20509;6846;306743;-83
2022/09/15 12:18:04;;;;;;;0.85;0.50;;;20.00;61.40;;;;;;20513;6846;285872;-84
2022/09/15 12:20:36;;;;;;;0.93;0.40;;;20.10;60.90;;;;;;20713;6846;117305;-84
2022/09/15 12:23:15;;;;;;;0.70;0.60;;;19.90;61.20;;;;;;20512;6846;337529;-83
2022/09/15 12:25:47;;;;;;;0.60;0.60;;;19.90;61.10;;;;;;20468;6846;118584;-83
2022/09/15 12:28:26;;;;;;;0.80;0.80;;;19.60;61.10;;;;;;20371;6846;119596;-83
2022/09/15 12:31:11;;;;;;;1.70;1.30;;;19.30;61.90;;;;;;20488;6847;282101;-86
2022/09/15 12:33:43;;;;;;;1.33;1.20;;;19.40;61.90;;;;;;20718;6847;117185;-83
2022/09/15 12:36:28;;;;;;;1.10;1.10;;;19.40;61.90;;;;;;20488;6847;337415;-83
2022/09/15 12:38:54;;;;;;;0.97;0.93;;;19.50;61.80;;;;;;20723;6847;117211;-83
2022/09/15 12:41:21;;;;;;;1.50;1.40;;;19.40;61.90;;;;;;20517;6847;341781;-83
2022/09/15 12:43:56;;;;;;;1.53;1.20;;;19.60;62.40;;;;;;20519;6847;296639;-83
2022/09/15 12:46:21;;;;;;;2.90;1.40;;;20.00;60.80;;;;;;20725;6847;118031;-83